Jp Tsubaki — JD2817 — position and weather

sailwx.info

Track history (hours):
 
Tides and Currents Weather Stations Pressure Air Temp Water Temp Dewpoint Dewpoint Depression Visibility Wind Speed Wind Dir Waves Ship Positions

Jp Tsubaki

Last reported at 2015-May-06 21:33 UTC. Time now 2015-May-06 22:35 UTC.
Position N 35°24' E 139°40'.

Length 115 m; draft 6.5 m.

Type: Cargo ship. MMSI: 431000734.

Date/timePositionNaut miles runAvg speedWind from/ knotsBaromVisibWave heightAir tempDewpointWater temp
2015-May-06 21:33N 35°24' E 139°40'4 4.1
2015-May-06 20:32N 35°22' E 139°44'0 0.0
2015-May-06 19:32N 35°22' E 139°44'0 0.0
2015-May-06 18:32N 35°22' E 139°44'0 0.0
2015-May-06 17:32N 35°22' E 139°44'0 0.0
2015-May-06 16:32N 35°22' E 139°44'0 0.0
2015-May-06 15:32N 35°22' E 139°44'0 0.1
2015-May-06 14:32N 35°22' E 139°44'0 0.0
2015-May-06 13:32N 35°22' E 139°44'2 2.4
2015-May-06 12:33N 35°23' E 139°42'3 2.8
2015-May-06 11:33N 35°24' E 139°39'0 0.0
2015-May-06 10:31N 35°24' E 139°39'0 0.0
2015-May-06 09:31N 35°24' E 139°39'0 0.0
2015-May-06 08:31N 35°24' E 139°39'0 0.0
2015-May-06 07:31N 35°24' E 139°39'0 0.2
2015-May-06 06:33N 35°24' E 139°38'6 6.4
2015-May-06 05:33N 35°26' E 139°46'10 9.6
2015-May-06 04:33N 35°29' E 139°57'2 2.0
2015-May-06 03:33N 35°27' E 139°58'0 0.0
2015-May-06 02:24N 35°27' E 139°58'0 0.0
2015-May-06 01:30N 35°27' E 139°58'0 0.0
2015-May-06 00:30N 35°27' E 139°58'0 0.0
2015-May-05 23:33N 35°27' E 139°58'3 2.6
2015-May-05 22:33N 35°30' E 139°57'0 0.0
2015-May-05 21:29N 35°30' E 139°57'0 0.0
2015-May-05 20:32N 35°30' E 139°57'0 0.0
2015-May-05 19:32N 35°30' E 139°57'0 0.0
2015-May-05 18:11N 35°30' E 139°57'0 0.0
2015-May-05 17:29N 35°30' E 139°57'0 0.0
2015-May-05 16:29N 35°30' E 139°57'0 0.0
2015-May-05 15:29N 35°30' E 139°57'0 0.1
2015-May-05 14:33N 35°30' E 139°57'8 8.2
2015-May-05 13:33N 35°26' E 139°48'8 7.6
2015-May-05 12:33N 35°24' E 139°39'0 0.0
2015-May-05 11:33N 35°24' E 139°39'0 0.0
2015-May-05 10:32N 35°24' E 139°39'0 0.0
2015-May-05 09:32N 35°24' E 139°39'0 0.0
2015-May-05 08:32N 35°24' E 139°39'0 0.0
2015-May-05 07:32N 35°24' E 139°39'0 0.0
2015-May-05 06:32N 35°24' E 139°39'0 0.0
2015-May-05 05:29N 35°24' E 139°39'0 0.2
2015-May-05 04:33N 35°24' E 139°38'1 1.3
2015-May-05 03:33N 35°24' E 139°40'0 0.0
2015-May-05 02:34N 35°24' E 139°40'0 0.0
2015-May-05 01:33N 35°24' E 139°40'0 0.0
2015-May-05 00:32N 35°24' E 139°40'0 0.0
2015-May-04 23:32N 35°24' E 139°40'0 0.0
2015-May-04 22:32N 35°24' E 139°40'0 0.5
2015-May-04 21:33N 35°24' E 139°40'3 3.3
2015-May-04 20:34N 35°22' E 139°44'0 0.0
2015-May-04 19:33N 35°22' E 139°44'0 0.0
2015-May-04 18:32N 35°22' E 139°44'0 0.1
2015-May-04 17:33N 35°22' E 139°44'0 0.2
2015-May-04 16:33N 35°22' E 139°44'0 0.0
2015-May-04 15:33N 35°22' E 139°44'0 0.0
2015-May-04 14:34N 35°22' E 139°44'0 0.0
2015-May-04 13:26N 35°22' E 139°44'4 4.9
2015-May-04 12:33N 35°24' E 139°39'0 0.2
2015-May-04 11:33N 35°24' E 139°39'0 0.0
2015-May-04 10:33N 35°24' E 139°39'0 0.0
2015-May-04 09:31N 35°24' E 139°39'0 0.0
2015-May-04 08:31N 35°24' E 139°39'0 0.0
2015-May-04 07:31N 35°24' E 139°39'0 0.0
2015-May-04 06:31N 35°24' E 139°39'0 0.0
2015-May-04 05:31N 35°24' E 139°39'0 0.0
2015-May-04 04:31N 35°24' E 139°39'0 0.0
2015-May-04 03:31N 35°24' E 139°39'0 0.0
2015-May-04 02:31N 35°24' E 139°39'0 0.0
2015-May-04 01:31N 35°24' E 139°39'0 0.0
2015-May-04 00:31N 35°24' E 139°39'0 0.0
2015-May-03 23:31N 35°24' E 139°39'0 0.0
2015-May-03 22:31N 35°24' E 139°39'0 0.0
2015-May-03 21:31N 35°24' E 139°39'0 0.0
2015-May-03 20:31N 35°24' E 139°39'0 0.0
2015-May-03 19:31N 35°24' E 139°39'0 0.0
2015-May-03 18:31N 35°24' E 139°39'0 0.0
2015-May-03 17:31N 35°24' E 139°39'0 0.0
2015-May-03 16:31N 35°24' E 139°39'0 0.0
2015-May-03 15:31N 35°24' E 139°39'0 0.0
2015-May-03 14:31N 35°24' E 139°39'0 0.2
2015-May-03 13:33N 35°24' E 139°39'6 5.7
2015-May-03 12:33N 35°26' E 139°45'9 9.5
2015-May-03 11:33N 35°30' E 139°56'1 0.7
2015-May-03 10:32N 35°30' E 139°57'3 2.7
2015-May-03 09:33N 35°27' E 139°58'0 0.1
2015-May-03 08:32N 35°27' E 139°58'0 0.0
2015-May-03 07:29N 35°27' E 139°58'0 0.0
2015-May-03 06:29N 35°27' E 139°58'0 0.1
2015-May-03 05:32N 35°27' E 139°58'7 7.3
2015-May-03 04:33N 35°27' E 139°49'9 9.2
2015-May-03 03:33N 35°24' E 139°39'0 0.0
2015-May-03 02:33N 35°24' E 139°39'0 0.0
2015-May-03 01:33N 35°24' E 139°39'0 0.0
2015-May-03 00:30N 35°24' E 139°39'0 0.0
2015-May-02 23:33N 35°24' E 139°39'0 0.0
2015-May-02 22:33N 35°24' E 139°39'0 0.0
2015-May-02 21:30N 35°24' E 139°39'0 0.0
2015-May-02 20:33N 35°24' E 139°39'0 0.0
2015-May-02 19:33N 35°24' E 139°39'0 0.0
2015-May-02 18:33N 35°24' E 139°39'0 0.0
2015-May-02 17:33N 35°24' E 139°39'0 0.0
2015-May-02 16:33N 35°24' E 139°39'0 0.0
2015-May-02 15:33N 35°24' E 139°39'0 0.0
2015-May-02 14:30N 35°24' E 139°39'0 0.0
2015-May-02 13:33N 35°24' E 139°39'0 0.0
2015-May-02 12:30N 35°24' E 139°39'0 0.0
2015-May-02 11:30N 35°24' E 139°39'0 0.0
2015-May-02 10:33N 35°24' E 139°39'0 0.0
2015-May-02 09:30N 35°24' E 139°39'0 0.0
2015-May-02 08:33N 35°24' E 139°39'0 0.0
2015-May-02 07:30N 35°24' E 139°39'0 0.0
2015-May-02 06:33N 35°24' E 139°39'0 0.0
2015-May-02 05:33N 35°24' E 139°39'0 0.0
2015-May-02 04:33N 35°24' E 139°39'1 1.2
2015-May-02 03:33N 35°24' E 139°40'0 0.0
2015-May-02 02:33N 35°24' E 139°40'0 0.0
2015-May-02 01:29N 35°24' E 139°40'0 0.1
2015-May-02 00:32N 35°24' E 139°40'0 0.0
2015-May-01 23:32N 35°24' E 139°40'0 0.0
2015-May-01 22:32N 35°24' E 139°40'1 1.0
2015-May-01 21:33N 35°23' E 139°41'3 2.5
2015-May-01 20:31N 35°24' E 139°44'0 0.0
2015-May-01 19:31N 35°24' E 139°44'0 0.0
2015-May-01 18:31N 35°24' E 139°44'0 0.1
2015-May-01 17:31N 35°24' E 139°44'0 0.1
2015-May-01 16:31N 35°24' E 139°44'1 1.4
2015-May-01 15:33N 35°24' E 139°42'3 3.2
2015-May-01 14:34N 35°24' E 139°39'0 0.0
2015-May-01 13:33N 35°24' E 139°39'0 0.0
2015-May-01 12:33N 35°24' E 139°39'0 0.0
2015-May-01 11:33N 35°24' E 139°39'0 0.0
2015-May-01 10:33N 35°24' E 139°39'0 0.0
2015-May-01 09:33N 35°24' E 139°39'0 0.0
2015-May-01 08:33N 35°24' E 139°39'0 0.0
2015-May-01 07:33N 35°24' E 139°39'0 0.3
2015-May-01 06:33N 35°24' E 139°39'9 8.8
2015-May-01 05:33N 35°28' E 139°48'7 7.1
2015-May-01 04:33N 35°30' E 139°57'0 0.0
2015-May-01 03:32N 35°30' E 139°57'0 0.0
2015-May-01 02:32N 35°30' E 139°57'0 0.0
2015-May-01 01:29N 35°30' E 139°57'0 0.0
2015-May-01 00:32N 35°30' E 139°57'0 0.0
2015-Apr-30 23:29N 35°30' E 139°57'0 0.0
2015-Apr-30 22:32N 35°30' E 139°57'0 0.0
2015-Apr-30 21:32N 35°30' E 139°57'0 0.0
2015-Apr-30 20:29N 35°30' E 139°57'0 0.2
2015-Apr-30 19:33N 35°30' E 139°57'2 2.5
2015-Apr-30 18:33N 35°27' E 139°58'0 0.0
2015-Apr-30 17:33N 35°27' E 139°58'0 0.0
2015-Apr-30 16:24N 35°27' E 139°58'0 0.0
2015-Apr-30 15:27N 35°27' E 139°58'3 2.9
2015-Apr-30 14:33N 35°29' E 139°56'1212.2
2015-Apr-30 13:33N 35°24' E 139°42'3 3.2
2015-Apr-30 12:33N 35°24' E 139°39'0 0.0
2015-Apr-30 11:31N 35°24' E 139°39'0 0.0
2015-Apr-30 10:31N 35°24' E 139°39'0 0.0
2015-Apr-30 09:31N 35°24' E 139°39'0 0.0
2015-Apr-30 08:31N 35°24' E 139°39'0 0.0
2015-Apr-30 07:31N 35°24' E 139°39'0 0.0
2015-Apr-30 06:31N 35°24' E 139°39'0 0.0
2015-Apr-30 05:31N 35°24' E 139°39'0 0.4
2015-Apr-30 04:33N 35°24' E 139°39'1 1.2
2015-Apr-30 03:34N 35°24' E 139°40'0 0.0
2015-Apr-30 02:33N 35°24' E 139°40'0 0.0
2015-Apr-30 01:31N 35°24' E 139°40'0 0.0
2015-Apr-30 00:31N 35°24' E 139°40'0 0.0
2015-Apr-29 23:31N 35°24' E 139°40'0 0.0
2015-Apr-29 22:31N 35°24' E 139°40'1 0.5
2015-Apr-29 21:34N 35°24' E 139°40'3 3.1
2015-Apr-29 20:34N 35°23' E 139°44'0 0.0
2015-Apr-29 19:32N 35°23' E 139°44'0 0.0
2015-Apr-29 18:32N 35°23' E 139°44'0 0.0
2015-Apr-29 17:32N 35°23' E 139°44'0 0.0
2015-Apr-29 16:32N 35°23' E 139°44'0 0.0
2015-Apr-29 15:32N 35°23' E 139°44'0 0.0
2015-Apr-29 14:32N 35°23' E 139°44'0 0.0
2015-Apr-29 13:33N 35°23' E 139°44'4 4.4
2015-Apr-29 12:33N 35°24' E 139°39'0 0.0
2015-Apr-29 11:33N 35°24' E 139°39'0 0.0
2015-Apr-29 10:31N 35°24' E 139°39'0 0.0
2015-Apr-29 09:31N 35°24' E 139°39'0 0.0
2015-Apr-29 08:31N 35°24' E 139°39'0 0.0
2015-Apr-29 07:31N 35°24' E 139°39'0 0.3
2015-Apr-29 06:33N 35°24' E 139°38'7 6.9
2015-Apr-29 05:33N 35°27' E 139°46'9 9.1
2015-Apr-29 04:33N 35°30' E 139°57'0 0.0
2015-Apr-29 03:29N 35°30' E 139°57'0 0.0
2015-Apr-29 02:32N 35°30' E 139°57'0 0.0
2015-Apr-29 01:32N 35°30' E 139°57'0 0.0
2015-Apr-29 00:32N 35°30' E 139°57'0 0.0
2015-Apr-28 23:32N 35°30' E 139°57'0 0.0
2015-Apr-28 22:32N 35°30' E 139°57'0 0.0
2015-Apr-28 21:32N 35°30' E 139°57'0 0.0
2015-Apr-28 20:32N 35°30' E 139°57'2 1.7
2015-Apr-28 19:34N 35°28' E 139°58'1 0.7
2015-Apr-28 18:33N 35°27' E 139°58'0 0.0
2015-Apr-28 17:31N 35°27' E 139°58'0 0.0
2015-Apr-28 16:25N 35°27' E 139°58'0 0.0
2015-Apr-28 15:19N 35°27' E 139°58'0 0.3
2015-Apr-28 14:33N 35°28' E 139°58'8 7.7
2015-Apr-28 13:33N 35°26' E 139°49'8 8.5
2015-Apr-28 12:33N 35°24' E 139°39'0 0.0
2015-Apr-28 11:34N 35°24' E 139°39'0 0.0
2015-Apr-28 10:31N 35°24' E 139°39'0 0.0
2015-Apr-28 09:31N 35°24' E 139°39'0 0.0
2015-Apr-28 08:31N 35°24' E 139°39'0 0.0
2015-Apr-28 07:31N 35°24' E 139°39'0 0.0
2015-Apr-28 06:31N 35°24' E 139°39'0 0.0
2015-Apr-28 05:31N 35°24' E 139°39'0 0.0
2015-Apr-28 04:31N 35°24' E 139°39'0 0.0
2015-Apr-28 03:31N 35°24' E 139°39'0 0.0
2015-Apr-28 02:31N 35°24' E 139°39'0 0.0
2015-Apr-28 01:31N 35°24' E 139°39'0 0.0
2015-Apr-28 00:31N 35°24' E 139°39'0 0.0
2015-Apr-27 23:31N 35°24' E 139°39'0 0.0
2015-Apr-27 22:31N 35°24' E 139°39'0 0.0
2015-Apr-27 21:31N 35°24' E 139°39'0 0.0
2015-Apr-27 20:31N 35°24' E 139°39'0 0.0
2015-Apr-27 19:31N 35°24' E 139°39'0 0.0
2015-Apr-27 18:31N 35°24' E 139°39'0 0.0
2015-Apr-27 17:31N 35°24' E 139°39'0 0.0
2015-Apr-27 16:31N 35°24' E 139°39'0 0.0
2015-Apr-27 15:31N 35°24' E 139°39'0 0.0
2015-Apr-27 14:31N 35°24' E 139°39'0 0.0
2015-Apr-27 13:31N 35°24' E 139°39'0 0.0
2015-Apr-27 12:31N 35°24' E 139°39'0 0.0
2015-Apr-27 11:31N 35°24' E 139°39'0 0.0
2015-Apr-27 10:31N 35°24' E 139°39'0 0.0
2015-Apr-27 09:31N 35°24' E 139°39'0 0.0
2015-Apr-27 08:31N 35°24' E 139°39'0 0.0
2015-Apr-27 07:25N 35°24' E 139°39'0 0.0
2015-Apr-27 06:28N 35°24' E 139°39'0 0.0
2015-Apr-27 05:31N 35°24' E 139°39'0 0.2
2015-Apr-27 04:33N 35°24' E 139°38'1 1.3
2015-Apr-27 03:33N 35°24' E 139°40'0 0.0
2015-Apr-27 02:33N 35°24' E 139°40'0 0.0
2015-Apr-27 01:33N 35°24' E 139°40'0 0.0
2015-Apr-27 00:33N 35°24' E 139°40'0 0.0
2015-Apr-26 23:33N 35°24' E 139°40'0 0.0
2015-Apr-26 22:33N 35°24' E 139°40'0 0.3
2015-Apr-26 21:33N 35°24' E 139°40'  
Track history (hours):
 
Tides and Currents Weather Stations Pressure Air Temp Water Temp Dewpoint Dewpoint Depression Visibility Wind Speed Wind Dir Waves Ship Positions

Jp Tsubaki

Last reported at 2015-May-06 21:33 UTC. Time now 2015-May-06 22:35 UTC.
Position N 35°24' E 139°40'.

Length 115 m; draft 6.5 m.

Type: Cargo ship. MMSI: 431000734.

Date/timePositionNaut miles runAvg speedWind from/ knotsBaromVisibWave heightAir tempDewpointWater temp
2015-May-06 21:33N 35°24' E 139°40'4 4.1
2015-May-06 20:32N 35°22' E 139°44'0 0.0
2015-May-06 19:32N 35°22' E 139°44'0 0.0
2015-May-06 18:32N 35°22' E 139°44'0 0.0
2015-May-06 17:32N 35°22' E 139°44'0 0.0
2015-May-06 16:32N 35°22' E 139°44'0 0.0
2015-May-06 15:32N 35°22' E 139°44'0 0.1
2015-May-06 14:32N 35°22' E 139°44'0 0.0
2015-May-06 13:32N 35°22' E 139°44'2 2.4
2015-May-06 12:33N 35°23' E 139°42'3 2.8
2015-May-06 11:33N 35°24' E 139°39'0 0.0
2015-May-06 10:31N 35°24' E 139°39'0 0.0
2015-May-06 09:31N 35°24' E 139°39'0 0.0
2015-May-06 08:31N 35°24' E 139°39'0 0.0
2015-May-06 07:31N 35°24' E 139°39'0 0.2
2015-May-06 06:33N 35°24' E 139°38'6 6.4
2015-May-06 05:33N 35°26' E 139°46'10 9.6
2015-May-06 04:33N 35°29' E 139°57'2 2.0
2015-May-06 03:33N 35°27' E 139°58'0 0.0
2015-May-06 02:24N 35°27' E 139°58'0 0.0
2015-May-06 01:30N 35°27' E 139°58'0 0.0
2015-May-06 00:30N 35°27' E 139°58'0 0.0
2015-May-05 23:33N 35°27' E 139°58'3 2.6
2015-May-05 22:33N 35°30' E 139°57'0 0.0
2015-May-05 21:29N 35°30' E 139°57'0 0.0
2015-May-05 20:32N 35°30' E 139°57'0 0.0
2015-May-05 19:32N 35°30' E 139°57'0 0.0
2015-May-05 18:11N 35°30' E 139°57'0 0.0
2015-May-05 17:29N 35°30' E 139°57'0 0.0
2015-May-05 16:29N 35°30' E 139°57'0 0.0
2015-May-05 15:29N 35°30' E 139°57'0 0.1
2015-May-05 14:33N 35°30' E 139°57'8 8.2
2015-May-05 13:33N 35°26' E 139°48'8 7.6
2015-May-05 12:33N 35°24' E 139°39'0 0.0
2015-May-05 11:33N 35°24' E 139°39'0 0.0
2015-May-05 10:32N 35°24' E 139°39'0 0.0
2015-May-05 09:32N 35°24' E 139°39'0 0.0
2015-May-05 08:32N 35°24' E 139°39'0 0.0
2015-May-05 07:32N 35°24' E 139°39'0 0.0
2015-May-05 06:32N 35°24' E 139°39'0 0.0
2015-May-05 05:29N 35°24' E 139°39'0 0.2
2015-May-05 04:33N 35°24' E 139°38'1 1.3
2015-May-05 03:33N 35°24' E 139°40'0 0.0
2015-May-05 02:34N 35°24' E 139°40'0 0.0
2015-May-05 01:33N 35°24' E 139°40'0 0.0
2015-May-05 00:32N 35°24' E 139°40'0 0.0
2015-May-04 23:32N 35°24' E 139°40'0 0.0
2015-May-04 22:32N 35°24' E 139°40'0 0.5
2015-May-04 21:33N 35°24' E 139°40'3 3.3
2015-May-04 20:34N 35°22' E 139°44'0 0.0
2015-May-04 19:33N 35°22' E 139°44'0 0.0
2015-May-04 18:32N 35°22' E 139°44'0 0.1
2015-May-04 17:33N 35°22' E 139°44'0 0.2
2015-May-04 16:33N 35°22' E 139°44'0 0.0
2015-May-04 15:33N 35°22' E 139°44'0 0.0
2015-May-04 14:34N 35°22' E 139°44'0 0.0
2015-May-04 13:26N 35°22' E 139°44'4 4.9
2015-May-04 12:33N 35°24' E 139°39'0 0.2
2015-May-04 11:33N 35°24' E 139°39'0 0.0
2015-May-04 10:33N 35°24' E 139°39'0 0.0
2015-May-04 09:31N 35°24' E 139°39'0 0.0
2015-May-04 08:31N 35°24' E 139°39'0 0.0
2015-May-04 07:31N 35°24' E 139°39'0 0.0
2015-May-04 06:31N 35°24' E 139°39'0 0.0
2015-May-04 05:31N 35°24' E 139°39'0 0.0
2015-May-04 04:31N 35°24' E 139°39'0 0.0
2015-May-04 03:31N 35°24' E 139°39'0 0.0
2015-May-04 02:31N 35°24' E 139°39'0 0.0
2015-May-04 01:31N 35°24' E 139°39'0 0.0
2015-May-04 00:31N 35°24' E 139°39'0 0.0
2015-May-03 23:31N 35°24' E 139°39'0 0.0
2015-May-03 22:31N 35°24' E 139°39'0 0.0
2015-May-03 21:31N 35°24' E 139°39'0 0.0
2015-May-03 20:31N 35°24' E 139°39'0 0.0
2015-May-03 19:31N 35°24' E 139°39'0 0.0
2015-May-03 18:31N 35°24' E 139°39'0 0.0
2015-May-03 17:31N 35°24' E 139°39'0 0.0
2015-May-03 16:31N 35°24' E 139°39'0 0.0
2015-May-03 15:31N 35°24' E 139°39'0 0.0
2015-May-03 14:31N 35°24' E 139°39'0 0.2
2015-May-03 13:33N 35°24' E 139°39'6 5.7
2015-May-03 12:33N 35°26' E 139°45'9 9.5
2015-May-03 11:33N 35°30' E 139°56'1 0.7
2015-May-03 10:32N 35°30' E 139°57'3 2.7
2015-May-03 09:33N 35°27' E 139°58'0 0.1
2015-May-03 08:32N 35°27' E 139°58'0 0.0
2015-May-03 07:29N 35°27' E 139°58'0 0.0
2015-May-03 06:29N 35°27' E 139°58'0 0.1
2015-May-03 05:32N 35°27' E 139°58'7 7.3
2015-May-03 04:33N 35°27' E 139°49'9 9.2
2015-May-03 03:33N 35°24' E 139°39'0 0.0
2015-May-03 02:33N 35°24' E 139°39'0 0.0
2015-May-03 01:33N 35°24' E 139°39'0 0.0
2015-May-03 00:30N 35°24' E 139°39'0 0.0
2015-May-02 23:33N 35°24' E 139°39'0 0.0
2015-May-02 22:33N 35°24' E 139°39'0 0.0
2015-May-02 21:30N 35°24' E 139°39'0 0.0
2015-May-02 20:33N 35°24' E 139°39'0 0.0
2015-May-02 19:33N 35°24' E 139°39'0 0.0
2015-May-02 18:33N 35°24' E 139°39'0 0.0
2015-May-02 17:33N 35°24' E 139°39'0 0.0
2015-May-02 16:33N 35°24' E 139°39'0 0.0
2015-May-02 15:33N 35°24' E 139°39'0 0.0
2015-May-02 14:30N 35°24' E 139°39'0 0.0
2015-May-02 13:33N 35°24' E 139°39'0 0.0
2015-May-02 12:30N 35°24' E 139°39'0 0.0
2015-May-02 11:30N 35°24' E 139°39'0 0.0
2015-May-02 10:33N 35°24' E 139°39'0 0.0
2015-May-02 09:30N 35°24' E 139°39'0 0.0
2015-May-02 08:33N 35°24' E 139°39'0 0.0
2015-May-02 07:30N 35°24' E 139°39'0 0.0
2015-May-02 06:33N 35°24' E 139°39'0 0.0
2015-May-02 05:33N 35°24' E 139°39'0 0.0
2015-May-02 04:33N 35°24' E 139°39'1 1.2
2015-May-02 03:33N 35°24' E 139°40'0 0.0
2015-May-02 02:33N 35°24' E 139°40'0 0.0
2015-May-02 01:29N 35°24' E 139°40'0 0.1
2015-May-02 00:32N 35°24' E 139°40'0 0.0
2015-May-01 23:32N 35°24' E 139°40'0 0.0
2015-May-01 22:32N 35°24' E 139°40'1 1.0
2015-May-01 21:33N 35°23' E 139°41'3 2.5
2015-May-01 20:31N 35°24' E 139°44'0 0.0
2015-May-01 19:31N 35°24' E 139°44'0 0.0
2015-May-01 18:31N 35°24' E 139°44'0 0.1
2015-May-01 17:31N 35°24' E 139°44'0 0.1
2015-May-01 16:31N 35°24' E 139°44'1 1.4
2015-May-01 15:33N 35°24' E 139°42'3 3.2
2015-May-01 14:34N 35°24' E 139°39'0 0.0
2015-May-01 13:33N 35°24' E 139°39'0 0.0
2015-May-01 12:33N 35°24' E 139°39'0 0.0
2015-May-01 11:33N 35°24' E 139°39'0 0.0
2015-May-01 10:33N 35°24' E 139°39'0 0.0
2015-May-01 09:33N 35°24' E 139°39'0 0.0
2015-May-01 08:33N 35°24' E 139°39'0 0.0
2015-May-01 07:33N 35°24' E 139°39'0 0.3
2015-May-01 06:33N 35°24' E 139°39'9 8.8
2015-May-01 05:33N 35°28' E 139°48'7 7.1
2015-May-01 04:33N 35°30' E 139°57'0 0.0
2015-May-01 03:32N 35°30' E 139°57'0 0.0
2015-May-01 02:32N 35°30' E 139°57'0 0.0
2015-May-01 01:29N 35°30' E 139°57'0 0.0
2015-May-01 00:32N 35°30' E 139°57'0 0.0
2015-Apr-30 23:29N 35°30' E 139°57'0 0.0
2015-Apr-30 22:32N 35°30' E 139°57'0 0.0
2015-Apr-30 21:32N 35°30' E 139°57'0 0.0
2015-Apr-30 20:29N 35°30' E 139°57'0 0.2
2015-Apr-30 19:33N 35°30' E 139°57'2 2.5
2015-Apr-30 18:33N 35°27' E 139°58'0 0.0
2015-Apr-30 17:33N 35°27' E 139°58'0 0.0
2015-Apr-30 16:24N 35°27' E 139°58'0 0.0
2015-Apr-30 15:27N 35°27' E 139°58'3 2.9
2015-Apr-30 14:33N 35°29' E 139°56'1212.2
2015-Apr-30 13:33N 35°24' E 139°42'3 3.2
2015-Apr-30 12:33N 35°24' E 139°39'0 0.0
2015-Apr-30 11:31N 35°24' E 139°39'0 0.0
2015-Apr-30 10:31N 35°24' E 139°39'0 0.0
2015-Apr-30 09:31N 35°24' E 139°39'0 0.0
2015-Apr-30 08:31N 35°24' E 139°39'0 0.0
2015-Apr-30 07:31N 35°24' E 139°39'0 0.0
2015-Apr-30 06:31N 35°24' E 139°39'0 0.0
2015-Apr-30 05:31N 35°24' E 139°39'0 0.4
2015-Apr-30 04:33N 35°24' E 139°39'1 1.2
2015-Apr-30 03:34N 35°24' E 139°40'0 0.0
2015-Apr-30 02:33N 35°24' E 139°40'0 0.0
2015-Apr-30 01:31N 35°24' E 139°40'0 0.0
2015-Apr-30 00:31N 35°24' E 139°40'0 0.0
2015-Apr-29 23:31N 35°24' E 139°40'0 0.0
2015-Apr-29 22:31N 35°24' E 139°40'1 0.5
2015-Apr-29 21:34N 35°24' E 139°40'3 3.1
2015-Apr-29 20:34N 35°23' E 139°44'0 0.0
2015-Apr-29 19:32N 35°23' E 139°44'0 0.0
2015-Apr-29 18:32N 35°23' E 139°44'0 0.0
2015-Apr-29 17:32N 35°23' E 139°44'0 0.0
2015-Apr-29 16:32N 35°23' E 139°44'0 0.0
2015-Apr-29 15:32N 35°23' E 139°44'0 0.0
2015-Apr-29 14:32N 35°23' E 139°44'0 0.0
2015-Apr-29 13:33N 35°23' E 139°44'4 4.4
2015-Apr-29 12:33N 35°24' E 139°39'0 0.0
2015-Apr-29 11:33N 35°24' E 139°39'0 0.0
2015-Apr-29 10:31N 35°24' E 139°39'0 0.0
2015-Apr-29 09:31N 35°24' E 139°39'0 0.0
2015-Apr-29 08:31N 35°24' E 139°39'0 0.0
2015-Apr-29 07:31N 35°24' E 139°39'0 0.3
2015-Apr-29 06:33N 35°24' E 139°38'7 6.9
2015-Apr-29 05:33N 35°27' E 139°46'9 9.1
2015-Apr-29 04:33N 35°30' E 139°57'0 0.0
2015-Apr-29 03:29N 35°30' E 139°57'0 0.0
2015-Apr-29 02:32N 35°30' E 139°57'0 0.0
2015-Apr-29 01:32N 35°30' E 139°57'0 0.0
2015-Apr-29 00:32N 35°30' E 139°57'0 0.0
2015-Apr-28 23:32N 35°30' E 139°57'0 0.0
2015-Apr-28 22:32N 35°30' E 139°57'0 0.0
2015-Apr-28 21:32N 35°30' E 139°57'0 0.0
2015-Apr-28 20:32N 35°30' E 139°57'2 1.7
2015-Apr-28 19:34N 35°28' E 139°58'1 0.7
2015-Apr-28 18:33N 35°27' E 139°58'0 0.0
2015-Apr-28 17:31N 35°27' E 139°58'0 0.0
2015-Apr-28 16:25N 35°27' E 139°58'0 0.0
2015-Apr-28 15:19N 35°27' E 139°58'0 0.3
2015-Apr-28 14:33N 35°28' E 139°58'8 7.7
2015-Apr-28 13:33N 35°26' E 139°49'8 8.5
2015-Apr-28 12:33N 35°24' E 139°39'0 0.0
2015-Apr-28 11:34N 35°24' E 139°39'0 0.0
2015-Apr-28 10:31N 35°24' E 139°39'0 0.0
2015-Apr-28 09:31N 35°24' E 139°39'0 0.0
2015-Apr-28 08:31N 35°24' E 139°39'0 0.0
2015-Apr-28 07:31N 35°24' E 139°39'0 0.0
2015-Apr-28 06:31N 35°24' E 139°39'0 0.0
2015-Apr-28 05:31N 35°24' E 139°39'0 0.0
2015-Apr-28 04:31N 35°24' E 139°39'0 0.0
2015-Apr-28 03:31N 35°24' E 139°39'0 0.0
2015-Apr-28 02:31N 35°24' E 139°39'0 0.0
2015-Apr-28 01:31N 35°24' E 139°39'0 0.0
2015-Apr-28 00:31N 35°24' E 139°39'0 0.0
2015-Apr-27 23:31N 35°24' E 139°39'0 0.0
2015-Apr-27 22:31N 35°24' E 139°39'0 0.0
2015-Apr-27 21:31N 35°24' E 139°39'0 0.0
2015-Apr-27 20:31N 35°24' E 139°39'0 0.0
2015-Apr-27 19:31N 35°24' E 139°39'0 0.0
2015-Apr-27 18:31N 35°24' E 139°39'0 0.0
2015-Apr-27 17:31N 35°24' E 139°39'0 0.0
2015-Apr-27 16:31N 35°24' E 139°39'0 0.0
2015-Apr-27 15:31N 35°24' E 139°39'0 0.0
2015-Apr-27 14:31N 35°24' E 139°39'0 0.0
2015-Apr-27 13:31N 35°24' E 139°39'0 0.0
2015-Apr-27 12:31N 35°24' E 139°39'0 0.0
2015-Apr-27 11:31N 35°24' E 139°39'0 0.0
2015-Apr-27 10:31N 35°24' E 139°39'0 0.0
2015-Apr-27 09:31N 35°24' E 139°39'0 0.0
2015-Apr-27 08:31N 35°24' E 139°39'0 0.0
2015-Apr-27 07:25N 35°24' E 139°39'0 0.0
2015-Apr-27 06:28N 35°24' E 139°39'0 0.0
2015-Apr-27 05:31N 35°24' E 139°39'0 0.2
2015-Apr-27 04:33N 35°24' E 139°38'1 1.3
2015-Apr-27 03:33N 35°24' E 139°40'0 0.0
2015-Apr-27 02:33N 35°24' E 139°40'0 0.0
2015-Apr-27 01:33N 35°24' E 139°40'0 0.0
2015-Apr-27 00:33N 35°24' E 139°40'0 0.0
2015-Apr-26 23:33N 35°24' E 139°40'0 0.0
2015-Apr-26 22:33N 35°24' E 139°40'0 0.3
2015-Apr-26 21:33N 35°24' E 139°40'  

Dump ship's entire track history